EKSP/SKS METAR and TAF weather

Enter ICAO airport designator
Station Type Date Time Source
EKSP METAR 2020/10/29 16:20 UTC NOAA

EKSP 291620Z 26011KT 9999 -SHRA FEW008 FEW020CB BKN045 09/08 Q1010 BECMG NSW


Station Type Date Time Source
EKSP Decoded METAR 2020/10/29 16:20 UTC NOAA

Skrydstrup, Denmark (EKSP) 55-14N 009-16E 47M
Oct 29, 2020 - 12:20 PM EDT / 2020.10.29 1620 UTC
Wind: from the W (260 degrees) at 13 MPH (11 KT):0
Visibility: greater than 7 mile(s):0
Sky conditions: mostly cloudy
Weather: light rain showers; Cumulonimbus clouds observed
Temperature: 48 F (9 C)
Dew Point: 46 F (8 C)
Relative Humidity: 93%
Pressure (altimeter): 29.83 in. Hg (1010 hPa)
ob: EKSP 291620Z 26011KT 9999 -SHRA FEW008 FEW020CB BKN045 09/08 Q1010 BECMG NSW
cycle: 16

Station Type Date Time Source
EKSP TAF 2020/10/29 15:31 UTC NOAA

TAF EKSP 291404Z 2915/3015 24010KT 9999 SCT030 BKN200
TEMPO 2915/2918 -SHRA FEW020TCU
BECMG 2919/2922 18008KT
TEMPO 2922/3001 4000 -RADZ BKN010
BECMG 3001/3003 1800 RADZ BR BKN003
TEMPO 3003/3015 4000 -RADZ BKN010

Example: see airport list